Time;durP1;ratioP1;P1;durP2;ratioP2;P2;SDS_P1;SDS_P2;PMS_P1;PMS_P2;Temp;Humidity;BMP_temperature;BMP_pressure;BME280_temperature;BME280_humidity;BME280_pressure;Samples;Min_cycle;Max_cycle;Signal;HPM_P1;HPM_P2
2022/08/17 00:00:30;;;;;;;0.22;0.20;;;;;;;;;;5038285;28;20387;-83
2022/08/17 00:02:56;;;;;;;0.00;0.00;;;;;;;;;;5037856;28;20120;-84
2022/08/17 00:05:22;;;;;;;0.00;0.00;;;;;;;;;;5072428;28;20068;-84
2022/08/17 00:07:48;;;;;;;0.00;0.00;;;;;;;;;;5054353;28;20048;-84
2022/08/17 00:10:14;;;;;;;0.10;0.03;;;;;;;;;;5072655;28;20438;-84
2022/08/17 00:12:41;;;;;;;0.00;0.00;;;;;;;;;;5072387;28;20076;-83
2022/08/17 00:15:07;;;;;;;0.00;0.00;;;;;;;;;;5054369;28;20527;-83
2022/08/17 00:17:33;;;;;;;0.00;0.00;;;;;;;;;;5072295;28;20426;-83
2022/08/17 00:19:59;;;;;;;0.00;0.00;;;;;;;;;;5072574;28;20056;-83
2022/08/17 00:22:26;;;;;;;0.03;0.00;;;;;;;;;;5072376;28;20503;-83
2022/08/17 00:24:52;;;;;;;0.00;0.00;;;;;;;;;;5037405;28;20059;-84
2022/08/17 00:27:18;;;;;;;0.00;0.00;;;;;;;;;;5054030;28;20090;-83
2022/08/17 00:29:44;;;;;;;0.00;0.00;;;;;;;;;;5054224;28;20041;-83
2022/08/17 00:32:11;;;;;;;0.00;0.00;;;;;;;;;;5072006;28;20035;-83
2022/08/17 00:34:38;;;;;;;0.00;0.00;;;;;;;;;;5055721;28;20059;-85
2022/08/17 00:37:04;;;;;;;0.00;0.00;;;;;;;;;;5075906;28;20047;-84
2022/08/17 00:39:30;;;;;;;0.22;0.10;;;;;;;;;;5058065;28;20076;-83
2022/08/17 00:41:56;;;;;;;0.00;0.00;;;;;;;;;;5075769;28;20047;-88
2022/08/17 00:44:22;;;;;;;0.00;0.00;;;;;;;;;;5075878;28;20041;-84
2022/08/17 00:46:48;;;;;;;0.00;0.00;;;;;;;;;;5057591;28;20049;-83
2022/08/17 00:49:18;;;;;;;0.00;0.00;;;;;;;;;;5075734;28;20041;-83
2022/08/17 00:51:50;;;;;;;0.00;0.00;;;;;;;;;;5057784;28;20044;-84
2022/08/17 00:54:21;;;;;;;0.00;0.00;;;;;;;;;;5075705;28;20044;-83
2022/08/17 00:56:50;;;;;;;0.22;0.10;;;;;;;;;;5075537;28;20036;-84
2022/08/17 00:59:17;;;;;;;0.35;0.35;;;;;;;;;;5075746;28;20044;-83
2022/08/17 01:01:44;;;;;;;0.00;0.00;;;;;;;;;;5040725;28;20135;-83
2022/08/17 01:04:10;;;;;;;0.00;0.00;;;;;;;;;;5057452;28;20399;-83
2022/08/17 01:06:36;;;;;;;0.00;0.00;;;;;;;;;;5075128;28;20044;-83
2022/08/17 01:09:03;;;;;;;0.00;0.00;;;;;;;;;;5057534;28;20056;-84
2022/08/17 01:11:30;;;;;;;0.00;0.00;;;;;;;;;;5075116;28;20055;-84
2022/08/17 01:13:56;;;;;;;0.00;0.00;;;;;;;;;;5057293;28;20047;-83
2022/08/17 01:16:27;;;;;;;0.00;0.00;;;;;;;;;;5075518;28;20041;-82
2022/08/17 01:18:56;;;;;;;0.00;0.00;;;;;;;;;;5057385;28;20048;-83
2022/08/17 01:21:22;;;;;;;0.00;0.00;;;;;;;;;;5075201;28;20040;-84
2022/08/17 01:23:48;;;;;;;0.00;0.00;;;;;;;;;;5056628;28;20406;-82
2022/08/17 01:26:15;;;;;;;0.00;0.00;;;;;;;;;;5057071;28;20044;-84
2022/08/17 01:28:41;;;;;;;0.00;0.00;;;;;;;;;;5074966;28;20037;-83
2022/08/17 01:31:07;;;;;;;0.00;0.00;;;;;;;;;;5075063;28;20446;-83
2022/08/17 01:33:34;;;;;;;0.00;0.00;;;;;;;;;;5056606;28;20043;-83
2022/08/17 01:36:00;;;;;;;0.00;0.00;;;;;;;;;;5075002;28;20036;-83
2022/08/17 01:38:30;;;;;;;0.00;0.00;;;;;;;;;;5074861;28;20090;-83
2022/08/17 01:41:00;;;;;;;0.00;0.00;;;;;;;;;;5057153;28;20051;-84
2022/08/17 01:43:29;;;;;;;0.00;0.00;;;;;;;;;;5074429;28;20045;-84
2022/08/17 01:45:55;;;;;;;0.00;0.00;;;;;;;;;;5055924;28;20044;-82
2022/08/17 01:48:22;;;;;;;0.00;0.00;;;;;;;;;;5056356;28;20047;-83
2022/08/17 01:50:50;;;;;;;0.00;0.00;;;;;;;;;;5056787;28;20372;-82
2022/08/17 01:53:18;;;;;;;0.00;0.00;;;;;;;;;;5074569;28;20069;-83
2022/08/17 01:56:02;;;;;;;0.00;0.00;;;;;;;;;;5074699;28;20387;-84
2022/08/17 01:58:28;;;;;;;0.00;0.00;;;;;;;;;;5056304;28;20052;-83
2022/08/17 02:00:54;;;;;;;0.00;0.00;;;;;;;;;;5074588;28;20044;-83
2022/08/17 02:03:22;;;;;;;0.00;0.00;;;;;;;;;;5073910;28;20040;-83
2022/08/17 02:05:48;;;;;;;0.00;0.00;;;;;;;;;;5056540;28;20114;-83
2022/08/17 02:08:19;;;;;;;0.00;0.00;;;;;;;;;;5056180;28;20067;-83
2022/08/17 02:10:44;;;;;;;0.00;0.00;;;;;;;;;;5056302;28;20093;-83
2022/08/17 02:13:11;;;;;;;0.00;0.00;;;;;;;;;;5055907;28;20048;-83
2022/08/17 02:15:37;;;;;;;0.00;0.00;;;;;;;;;;5073930;28;20540;-83
2022/08/17 02:18:04;;;;;;;0.00;0.00;;;;;;;;;;5073814;28;20487;-83
2022/08/17 02:20:31;;;;;;;0.00;0.00;;;;;;;;;;5074220;28;20040;-83
2022/08/17 02:23:02;;;;;;;0.00;0.00;;;;;;;;;;5056206;28;20048;-84
2022/08/17 02:25:29;;;;;;;0.00;0.00;;;;;;;;;;5073876;28;20079;-83
2022/08/17 02:27:55;;;;;;;0.00;0.00;;;;;;;;;;5073848;28;20045;-83
2022/08/17 02:30:21;;;;;;;0.00;0.00;;;;;;;;;;5073932;28;20051;-83
2022/08/17 02:32:47;;;;;;;0.00;0.00;;;;;;;;;;5055620;28;20127;-84
2022/08/17 02:35:13;;;;;;;0.00;0.00;;;;;;;;;;5055760;28;20129;-83
2022/08/17 02:37:41;;;;;;;0.00;0.00;;;;;;;;;;5055623;28;20032;-84
2022/08/17 02:40:07;;;;;;;0.00;0.00;;;;;;;;;;5073826;28;20043;-83
2022/08/17 02:42:39;;;;;;;0.00;0.00;;;;;;;;;;5055812;28;20590;-83
2022/08/17 02:45:07;;;;;;;0.00;0.00;;;;;;;;;;5073685;28;20045;-83
2022/08/17 02:47:34;;;;;;;0.00;0.00;;;;;;;;;;5056047;28;20055;-83
2022/08/17 02:50:00;;;;;;;0.00;0.00;;;;;;;;;;5073596;28;20052;-83
2022/08/17 02:52:32;;;;;;;0.00;0.00;;;;;;;;;;5055267;28;20106;-83
2022/08/17 02:54:58;;;;;;;0.00;0.00;;;;;;;;;;5055344;28;20483;-84
2022/08/17 02:57:24;;;;;;;0.00;0.00;;;;;;;;;;5073152;28;20040;-83
2022/08/17 02:59:50;;;;;;;0.00;0.00;;;;;;;;;;5055059;28;20495;-83
2022/08/17 03:02:16;;;;;;;0.20;0.10;;;;;;;;;;5073189;28;20036;-84
2022/08/17 03:04:42;;;;;;;0.00;0.00;;;;;;;;;;5055211;28;20055;-84
2022/08/17 03:07:07;;;;;;;0.00;0.00;;;;;;;;;;5055180;28;20127;-82
2022/08/17 03:09:34;;;;;;;0.00;0.00;;;;;;;;;;5038349;28;20040;-83
2022/08/17 03:12:04;;;;;;;0.00;0.00;;;;;;;;;;5073253;28;20039;-83
2022/08/17 03:14:31;;;;;;;0.00;0.00;;;;;;;;;;5054822;28;20048;-83
2022/08/17 03:16:58;;;;;;;0.00;0.00;;;;;;;;;;5055255;28;20099;-83
2022/08/17 03:19:24;;;;;;;0.00;0.00;;;;;;;;;;5055078;28;20048;-83
2022/08/17 03:21:50;;;;;;;0.00;0.00;;;;;;;;;;5055235;28;20041;-83
2022/08/17 03:24:16;;;;;;;0.00;0.00;;;;;;;;;;5054582;28;20067;-83
2022/08/17 03:26:42;;;;;;;0.00;0.00;;;;;;;;;;5073426;28;20094;-83
2022/08/17 03:29:08;;;;;;;0.00;0.00;;;;;;;;;;5072774;28;20036;-84
2022/08/17 03:31:34;;;;;;;0.00;0.00;;;;;;;;;;5054833;28;20446;-82
2022/08/17 03:34:00;;;;;;;0.00;0.00;;;;;;;;;;5072559;28;20064;-83
2022/08/17 03:36:26;;;;;;;0.00;0.00;;;;;;;;;;5072980;28;20041;-83
2022/08/17 03:38:52;;;;;;;0.00;0.00;;;;;;;;;;5072816;28;20098;-83
2022/08/17 03:41:18;;;;;;;0.00;0.00;;;;;;;;;;5073222;28;20132;-85
2022/08/17 03:43:44;;;;;;;0.00;0.00;;;;;;;;;;5055402;28;20076;-83
2022/08/17 03:57:09;;;;;;;0.00;0.00;;;;;;;;;;5072577;28;20513;-83
2022/08/17 03:59:37;;;;;;;0.00;0.00;;;;;;;;;;5072631;28;20047;-84
2022/08/17 04:02:08;;;;;;;0.00;0.00;;;;;;;;;;5038140;28;20059;-84
2022/08/17 04:04:34;;;;;;;0.00;0.00;;;;;;;;;;5054507;28;20076;-83
2022/08/17 04:07:00;;;;;;;0.00;0.00;;;;;;;;;;5054548;28;20049;-84
2022/08/17 04:09:26;;;;;;;0.00;0.00;;;;;;;;;;5055299;28;20052;-83
2022/08/17 04:11:53;;;;;;;0.00;0.00;;;;;;;;;;5058578;28;20087;-84
2022/08/17 04:14:19;;;;;;;0.00;0.00;;;;;;;;;;5058091;28;20041;-84
2022/08/17 04:16:45;;;;;;;0.00;0.00;;;;;;;;;;5058382;28;20040;-85
2022/08/17 04:19:11;;;;;;;0.00;0.00;;;;;;;;;;5076119;28;20411;-84
2022/08/17 04:21:37;;;;;;;0.30;0.20;;;;;;;;;;5076485;28;20047;-84
2022/08/17 04:24:04;;;;;;;0.00;0.00;;;;;;;;;;5057758;28;20059;-84
2022/08/17 04:26:30;;;;;;;0.00;0.00;;;;;;;;;;5076479;28;20044;-83
2022/08/17 04:28:57;;;;;;;0.00;0.00;;;;;;;;;;5058271;28;20105;-84
2022/08/17 04:31:23;;;;;;;0.00;0.00;;;;;;;;;;5076323;28;20106;-84
2022/08/17 04:33:49;;;;;;;0.00;0.00;;;;;;;;;;5076038;28;20037;-83
2022/08/17 04:36:16;;;;;;;0.00;0.00;;;;;;;;;;5058065;28;20415;-83
2022/08/17 04:38:43;;;;;;;0.00;0.00;;;;;;;;;;5057814;28;20445;-84
2022/08/17 04:43:57;;;;;;;0.00;0.00;;;;;;;;;;5075850;28;20048;-84
2022/08/17 04:46:24;;;;;;;0.00;0.00;;;;;;;;;;5057889;28;20051;-83
2022/08/17 04:48:52;;;;;;;0.00;0.00;;;;;;;;;;5075762;28;20090;-84
2022/08/17 04:51:21;;;;;;;0.00;0.00;;;;;;;;;;5075692;28;20479;-83
2022/08/17 04:53:48;;;;;;;0.00;0.00;;;;;;;;;;5075632;28;20062;-83
2022/08/17 04:56:15;;;;;;;0.00;0.00;;;;;;;;;;5075621;28;20041;-83
2022/08/17 04:58:42;;;;;;;0.00;0.00;;;;;;;;;;5057782;28;20521;-83
2022/08/17 05:01:08;;;;;;;0.00;0.00;;;;;;;;;;5076376;28;20032;-84
2022/08/17 05:03:35;;;;;;;0.00;0.00;;;;;;;;;;5057536;28;20049;-84
2022/08/17 05:06:01;;;;;;;0.00;0.00;;;;;;;;;;5075320;28;20475;-84
2022/08/17 05:08:27;;;;;;;0.00;0.00;;;;;;;;;;5057682;28;20040;-84
2022/08/17 05:10:53;;;;;;;0.00;0.00;;;;;;;;;;5040770;28;20079;-84
2022/08/17 05:13:21;;;;;;;0.00;0.00;;;;;;;;;;5057352;28;20047;-84
2022/08/17 05:15:48;;;;;;;0.00;0.00;;;;;;;;;;5075279;28;20036;-84
2022/08/17 05:18:15;;;;;;;0.00;0.00;;;;;;;;;;5075225;28;20516;-84
2022/08/17 05:20:41;;;;;;;0.00;0.00;;;;;;;;;;5074309;28;20037;-84
2022/08/17 05:23:09;;;;;;;0.00;0.00;;;;;;;;;;5057063;28;20036;-84
2022/08/17 05:25:37;;;;;;;0.00;0.00;;;;;;;;;;5056901;28;20056;-85
2022/08/17 05:28:04;;;;;;;0.00;0.00;;;;;;;;;;5075343;28;20072;-84
2022/08/17 05:30:30;;;;;;;0.00;0.00;;;;;;;;;;5075021;28;20048;-84
2022/08/17 05:33:00;;;;;;;0.00;0.00;;;;;;;;;;5056965;28;20044;-84
2022/08/17 05:35:27;;;;;;;0.00;0.00;;;;;;;;;;5056909;28;20044;-84
2022/08/17 05:37:53;;;;;;;0.00;0.00;;;;;;;;;;5056983;28;20044;-84
2022/08/17 05:40:20;;;;;;;0.10;0.00;;;;;;;;;;5056947;28;20082;-84
2022/08/17 05:42:47;;;;;;;0.00;0.00;;;;;;;;;;5074986;28;20051;-84
2022/08/17 05:45:14;;;;;;;0.00;0.00;;;;;;;;;;5056779;28;20466;-83
2022/08/17 05:47:41;;;;;;;0.03;0.00;;;;;;;;;;5074969;28;20048;-84
2022/08/17 05:50:08;;;;;;;0.00;0.00;;;;;;;;;;5056390;28;20124;-84
2022/08/17 05:52:47;;;;;;;0.00;0.00;;;;;;;;;;5056730;28;20048;-84
2022/08/17 05:55:39;;;;;;;0.00;0.00;;;;;;;;;;5074586;28;20510;-84
2022/08/17 05:58:22;;;;;;;0.00;0.00;;;;;;;;;;5071335;28;20511;-83
2022/08/17 06:01:10;;;;;;;0.00;0.00;;;;;;;;;;5056575;28;20044;-84
2022/08/17 06:03:42;;;;;;;0.00;0.00;;;;;;;;;;5056427;28;20127;-83
2022/08/17 06:06:31;;;;;;;0.00;0.00;;;;;;;;;;5056183;28;20052;-83
2022/08/17 06:08:57;;;;;;;0.00;0.00;;;;;;;;;;5063502;28;20084;-84
2022/08/17 06:11:34;;;;;;;0.00;0.00;;;;;;;;;;5056097;28;20529;-84
2022/08/17 06:14:19;;;;;;;0.00;0.00;;;;;;;;;;5056196;28;20036;-84
2022/08/17 06:16:47;;;;;;;0.00;0.00;;;;;;;;;;5056315;28;20507;-83
2022/08/17 06:19:19;;;;;;;0.00;0.00;;;;;;;;;;5056957;28;20040;-84
2022/08/17 06:21:50;;;;;;;0.00;0.00;;;;;;;;;;5055865;28;20048;-84
2022/08/17 06:24:19;;;;;;;0.28;0.00;;;;;;;;;;5073743;28;20063;-83
2022/08/17 06:26:46;;;;;;;0.00;0.00;;;;;;;;;;5055798;28;20048;-84
2022/08/17 06:29:32;;;;;;;0.00;0.00;;;;;;;;;;5073772;28;20041;-83
2022/08/17 06:31:58;;;;;;;0.00;0.00;;;;;;;;;;5055499;28;20123;-84
2022/08/17 06:34:24;;;;;;;0.00;0.00;;;;;;;;;;5055715;28;20431;-84
2022/08/17 06:36:50;;;;;;;0.00;0.00;;;;;;;;;;5073806;28;20037;-83
2022/08/17 06:39:43;;;;;;;0.00;0.00;;;;;;;;;;5056055;28;20060;-86
2022/08/17 06:42:15;;;;;;;0.00;0.00;;;;;;;;;;5073770;28;20150;-82
2022/08/17 06:44:44;;;;;;;0.00;0.00;;;;;;;;;;5055443;28;20048;-82
2022/08/17 06:47:20;;;;;;;0.00;0.00;;;;;;;;;;5042268;28;20404;-84
2022/08/17 06:49:53;;;;;;;0.00;0.00;;;;;;;;;;5053041;28;20099;-84
2022/08/17 06:52:33;;;;;;;0.05;0.00;;;;;;;;;;5034970;28;20048;-83
2022/08/17 06:55:02;;;;;;;0.00;0.00;;;;;;;;;;5052720;28;20048;-86
2022/08/17 06:57:31;;;;;;;0.00;0.00;;;;;;;;;;5035147;28;20045;-85
2022/08/17 06:59:59;;;;;;;0.00;0.00;;;;;;;;;;5054681;28;20067;-85
2022/08/17 07:02:37;;;;;;;0.00;0.00;;;;;;;;;;5054839;28;20051;-86
2022/08/17 07:05:04;;;;;;;0.00;0.00;;;;;;;;;;5037886;28;20072;-86
2022/08/17 07:10:16;;;;;;;0.00;0.00;;;;;;;;;;5072532;28;20056;-83
2022/08/17 07:12:44;;;;;;;0.00;0.00;;;;;;;;;;5073068;28;20036;-83
2022/08/17 07:15:15;;;;;;;0.00;0.00;;;;;;;;;;5072247;28;20069;-82
2022/08/17 07:17:42;;;;;;;0.00;0.00;;;;;;;;;;5054618;28;20044;-83
2022/08/17 07:20:11;;;;;;;0.00;0.00;;;;;;;;;;5072438;28;20052;-83
2022/08/17 07:22:40;;;;;;;0.00;0.00;;;;;;;;;;5072586;28;20041;-84
2022/08/17 07:25:11;;;;;;;0.00;0.00;;;;;;;;;;5071676;28;20060;-83
2022/08/17 07:27:39;;;;;;;0.00;0.00;;;;;;;;;;5073108;28;20130;-84
2022/08/17 07:30:10;;;;;;;0.00;0.00;;;;;;;;;;5054886;28;20051;-85
2022/08/17 07:32:45;;;;;;;0.00;0.00;;;;;;;;;;5073016;28;20036;-85
2022/08/17 07:35:14;;;;;;;0.00;0.00;;;;;;;;;;5055094;28;20094;-85
2022/08/17 07:37:42;;;;;;;0.00;0.00;;;;;;;;;;5072841;28;20051;-83
2022/08/17 07:40:19;;;;;;;0.00;0.00;;;;;;;;;;5054771;28;20052;-83
2022/08/17 07:43:02;;;;;;;0.00;0.00;;;;;;;;;;5054619;28;20044;-85
2022/08/17 07:48:19;;;;;;;0.00;0.00;;;;;;;;;;5073164;28;20049;-84
2022/08/17 07:50:45;;;;;;;0.00;0.00;;;;;;;;;;5083321;28;20080;-82
2022/08/17 07:53:15;;;;;;;0.00;0.00;;;;;;;;;;5084689;28;20380;-84
2022/08/17 07:55:41;;;;;;;0.00;0.00;;;;;;;;;;5054492;28;20083;-84
2022/08/17 07:58:08;;;;;;;0.00;0.00;;;;;;;;;;5072807;28;20040;-84
2022/08/17 08:00:35;;;;;;;0.00;0.00;;;;;;;;;;5054623;28;20071;-83
2022/08/17 08:03:25;;;;;;;0.00;0.00;;;;;;;;;;5038081;28;20040;-83
2022/08/17 08:05:56;;;;;;;0.00;0.00;;;;;;;;;;5072575;28;20084;-82
2022/08/17 08:08:31;;;;;;;0.00;0.00;;;;;;;;;;5054506;28;20037;-84
2022/08/17 08:11:02;;;;;;;0.00;0.00;;;;;;;;;;5072506;28;20047;-83
2022/08/17 08:13:29;;;;;;;0.00;0.00;;;;;;;;;;5072614;28;20080;-82
2022/08/17 08:15:56;;;;;;;0.00;0.00;;;;;;;;;;5054171;28;20459;-82
2022/08/17 08:18:31;;;;;;;0.00;0.00;;;;;;;;;;5054973;28;20044;-83
2022/08/17 08:21:03;;;;;;;0.60;0.00;;;;;;;;;;5037737;28;20475;-84
2022/08/17 08:23:36;;;;;;;0.00;0.00;;;;;;;;;;5072197;28;20048;-82
2022/08/17 08:26:21;;;;;;;0.00;0.00;;;;;;;;;;5072389;28;20091;-83
2022/08/17 08:29:07;;;;;;;0.00;0.00;;;;;;;;;;5054561;28;20103;-83
2022/08/17 08:31:52;;;;;;;0.00;0.00;;;;;;;;;;5072247;28;20042;-83
2022/08/17 08:34:23;;;;;;;0.00;0.00;;;;;;;;;;5072376;28;20052;-83
2022/08/17 08:36:58;;;;;;;0.00;0.00;;;;;;;;;;5053405;28;20044;-84
2022/08/17 08:39:30;;;;;;;0.38;0.38;;;;;;;;;;5054322;28;20041;-85
2022/08/17 08:42:06;;;;;;;0.00;0.00;;;;;;;;;;5054385;28;20490;-84
2022/08/17 08:44:41;;;;;;;0.00;0.00;;;;;;;;;;5054410;28;20541;-83
2022/08/17 08:47:25;;;;;;;0.00;0.00;;;;;;;;;;5072209;28;20055;-81
2022/08/17 08:49:54;;;;;;;0.00;0.00;;;;;;;;;;5072165;28;20052;-84
2022/08/17 08:52:35;;;;;;;0.00;0.00;;;;;;;;;;5072060;28;20033;-83
2022/08/17 08:55:07;;;;;;;0.00;0.00;;;;;;;;;;5054690;28;20044;-84
2022/08/17 08:57:37;;;;;;;0.00;0.00;;;;;;;;;;5057688;28;20052;-84
2022/08/17 09:00:12;;;;;;;0.00;0.00;;;;;;;;;;5058085;28;20434;-88
2022/08/17 09:02:38;;;;;;;0.00;0.00;;;;;;;;;;5057819;28;20041;-85
2022/08/17 09:05:07;;;;;;;0.10;0.10;;;;;;;;;;5057438;28;20287;-85
2022/08/17 09:07:40;;;;;;;0.00;0.00;;;;;;;;;;5057334;28;20090;-85
2022/08/17 09:10:21;;;;;;;0.00;0.00;;;;;;;;;;5075643;28;20040;-85
2022/08/17 09:13:05;;;;;;;0.00;0.00;;;;;;;;;;5075218;28;20549;-85
2022/08/17 09:15:40;;;;;;;0.00;0.00;;;;;;;;;;5075224;28;20514;-84
2022/08/17 09:18:10;;;;;;;0.55;0.55;;;;;;;;;;5057445;28;20059;-85
2022/08/17 09:20:55;;;;;;;0.13;0.10;;;;;;;;;;5072008;28;20041;-86
2022/08/17 09:23:32;;;;;;;0.00;0.00;;;;;;;;;;5065962;28;20123;-86
2022/08/17 09:26:02;;;;;;;0.08;0.08;;;;;;;;;;5053855;28;20045;-85
2022/08/17 09:28:31;;;;;;;0.73;0.35;;;;;;;;;;5054951;28;20048;-86
2022/08/17 09:31:01;;;;;;;0.20;0.00;;;;;;;;;;5054903;28;20547;-86
2022/08/17 09:33:27;;;;;;;0.20;0.00;;;;;;;;;;5037118;28;20392;-86
2022/08/17 09:35:57;;;;;;;0.05;0.03;;;;;;;;;;5036838;28;20075;-85
2022/08/17 09:38:41;;;;;;;0.00;0.00;;;;;;;;;;5061656;28;20068;-89
2022/08/17 09:41:16;;;;;;;0.40;0.40;;;;;;;;;;5056852;28;20541;-86
2022/08/17 09:43:57;;;;;;;0.00;0.00;;;;;;;;;;5074468;28;20392;-85
2022/08/17 09:46:27;;;;;;;0.10;0.10;;;;;;;;;;5057030;28;20479;-85
2022/08/17 09:48:57;;;;;;;0.00;0.00;;;;;;;;;;5056677;28;20403;-87
2022/08/17 09:51:43;;;;;;;0.08;0.08;;;;;;;;;;5074868;28;20123;-85
2022/08/17 09:54:17;;;;;;;0.00;0.00;;;;;;;;;;5074284;28;20489;-86
2022/08/17 09:56:50;;;;;;;0.00;0.00;;;;;;;;;;5056838;28;20047;-86
2022/08/17 09:59:35;;;;;;;0.00;0.00;;;;;;;;;;5074649;28;20048;-86
2022/08/17 10:02:27;;;;;;;0.00;0.00;;;;;;;;;;5056562;28;20509;-84
2022/08/17 10:05:05;;;;;;;0.00;0.00;;;;;;;;;;5074567;28;20093;-86
2022/08/17 10:07:31;;;;;;;0.00;0.00;;;;;;;;;;5073770;28;20044;-85
2022/08/17 10:10:01;;;;;;;0.00;0.00;;;;;;;;;;5056225;28;20132;-84
2022/08/17 10:12:27;;;;;;;0.00;0.00;;;;;;;;;;5056218;28;20086;-84
2022/08/17 10:15:12;;;;;;;0.00;0.00;;;;;;;;;;5074158;28;20076;-84
2022/08/17 10:17:54;;;;;;;0.00;0.00;;;;;;;;;;5073921;28;20043;-84
2022/08/17 10:20:24;;;;;;;0.00;0.00;;;;;;;;;;5056123;28;20059;-84
2022/08/17 10:28:29;;;;;;;0.00;0.00;;;;;;;;;;5073909;28;20040;-83
2022/08/17 10:30:57;;;;;;;0.00;0.00;;;;;;;;;;5073805;28;20072;-84
2022/08/17 10:33:26;;;;;;;0.00;0.00;;;;;;;;;;5055656;28;20047;-85
2022/08/17 10:36:00;;;;;;;0.00;0.00;;;;;;;;;;5055768;28;20072;-85
2022/08/17 10:38:32;;;;;;;0.00;0.00;;;;;;;;;;5039012;28;20476;-86
2022/08/17 10:41:17;;;;;;;0.00;0.00;;;;;;;;;;5056104;28;20040;-85
2022/08/17 10:43:57;;;;;;;0.00;0.00;;;;;;;;;;5073478;28;20118;-82
2022/08/17 10:46:28;;;;;;;0.10;0.10;;;;;;;;;;5073823;28;20051;-83
2022/08/17 10:49:13;;;;;;;0.35;0.20;;;;;;;;;;5055556;28;20399;-83
2022/08/17 10:51:40;;;;;;;0.10;0.03;;;;;;;;;;5073622;28;20048;-82
2022/08/17 10:54:26;;;;;;;0.00;0.00;;;;;;;;;;5073302;28;20312;-82
2022/08/17 10:56:53;;;;;;;0.00;0.00;;;;;;;;;;5055674;28;20129;-83
2022/08/17 10:59:40;;;;;;;0.00;0.00;;;;;;;;;;5073408;28;20090;-82
2022/08/17 11:02:06;;;;;;;0.00;0.00;;;;;;;;;;5055440;28;20071;-83
2022/08/17 11:05:01;;;;;;;0.00;0.00;;;;;;;;;;5073235;28;20044;-82
2022/08/17 11:07:28;;;;;;;0.00;0.00;;;;;;;;;;4985722;28;20089;-82
2022/08/17 11:10:12;;;;;;;0.00;0.00;;;;;;;;;;5073198;28;20471;-82
2022/08/17 11:12:59;;;;;;;0.25;0.10;;;;;;;;;;5054959;28;20036;-83
2022/08/17 11:15:51;;;;;;;0.00;0.00;;;;;;;;;;5073140;28;20036;-83
2022/08/17 11:18:25;;;;;;;0.60;0.03;;;;;;;;;;5072642;28;20503;-83
2022/08/17 11:20:51;;;;;;;0.00;0.00;;;;;;;;;;5072901;28;20040;-83
2022/08/17 11:23:28;;;;;;;0.00;0.00;;;;;;;;;;5054829;28;20044;-83
2022/08/17 11:25:56;;;;;;;0.00;0.00;;;;;;;;;;5073007;28;20087;-83
2022/08/17 11:28:24;;;;;;;0.00;0.00;;;;;;;;;;5054981;28;20072;-83
2022/08/17 11:31:02;;;;;;;0.00;0.00;;;;;;;;;;5073181;28;20040;-84
2022/08/17 11:33:28;;;;;;;0.00;0.00;;;;;;;;;;5054651;28;20036;-87
2022/08/17 11:36:13;;;;;;;0.00;0.00;;;;;;;;;;5072843;28;20123;-86
2022/08/17 11:38:58;;;;;;;0.90;0.50;;;;;;;;;;5053850;28;20040;-86
2022/08/17 11:41:38;;;;;;;0.55;0.20;;;;;;;;;;5055104;28;20044;-86
2022/08/17 11:44:04;;;;;;;0.00;0.00;;;;;;;;;;5055115;28;20036;-87
2022/08/17 11:52:35;;;;;;;0.17;0.05;;;;;;;;;;5055030;28;20396;-82
2022/08/17 11:55:01;;;;;;;0.00;0.00;;;;;;;;;;5034501;28;20041;-82
2022/08/17 11:57:28;;;;;;;0.00;0.00;;;;;;;;;;5034786;28;20045;-83
2022/08/17 11:59:54;;;;;;;0.00;0.00;;;;;;;;;;5052368;28;20404;-83
2022/08/17 12:02:33;;;;;;;0.50;0.17;;;;;;;;;;5051989;28;20048;-86
2022/08/17 12:05:20;;;;;;;0.10;0.10;;;;;;;;;;5034409;28;20491;-83
2022/08/17 12:07:51;;;;;;;0.00;0.00;;;;;;;;;;5052505;28;20407;-83
2022/08/17 12:10:20;;;;;;;0.00;0.00;;;;;;;;;;5034424;28;20049;-83
2022/08/17 12:12:48;;;;;;;0.00;0.00;;;;;;;;;;5034813;28;20503;-84
2022/08/17 12:15:18;;;;;;;0.08;0.05;;;;;;;;;;5034333;28;20047;-83
2022/08/17 12:17:52;;;;;;;0.00;0.00;;;;;;;;;;5034494;28;20044;-83
2022/08/17 12:20:22;;;;;;;0.00;0.00;;;;;;;;;;5034348;28;20048;-83
2022/08/17 12:22:55;;;;;;;0.00;0.00;;;;;;;;;;5034555;28;20048;-83
2022/08/17 12:25:25;;;;;;;0.00;0.00;;;;;;;;;;5052019;28;20053;-83
2022/08/17 12:27:51;;;;;;;0.10;0.00;;;;;;;;;;5052306;28;20368;-82
2022/08/17 12:30:19;;;;;;;0.00;0.00;;;;;;;;;;5052746;28;20063;-81
2022/08/17 12:32:48;;;;;;;0.00;0.00;;;;;;;;;;5038344;28;20045;-81
2022/08/17 12:35:17;;;;;;;0.00;0.00;;;;;;;;;;5021379;28;20052;-81
2022/08/17 12:37:46;;;;;;;0.00;0.00;;;;;;;;;;5038435;28;20052;-81
2022/08/17 12:40:25;;;;;;;0.00;0.00;;;;;;;;;;5038151;28;20445;-82
2022/08/17 12:42:59;;;;;;;0.00;0.00;;;;;;;;;;5021681;28;20045;-81
2022/08/17 12:45:52;;;;;;;0.30;0.30;;;;;;;;;;5054715;28;20033;-82
2022/08/17 12:48:22;;;;;;;0.20;0.05;;;;;;;;;;5035604;28;20091;-81
2022/08/17 12:50:49;;;;;;;0.00;0.00;;;;;;;;;;5055670;28;20511;-83
2022/08/17 12:53:16;;;;;;;0.00;0.00;;;;;;;;;;5037675;28;20041;-82
2022/08/17 12:55:43;;;;;;;0.00;0.00;;;;;;;;;;5055789;28;20107;-81
2022/08/17 12:58:16;;;;;;;0.00;0.00;;;;;;;;;;5037733;28;20036;-81
2022/08/17 13:00:48;;;;;;;0.00;0.00;;;;;;;;;;5055470;28;20400;-81
2022/08/17 13:03:19;;;;;;;0.00;0.00;;;;;;;;;;5037666;28;20040;-81
2022/08/17 13:05:51;;;;;;;0.00;0.00;;;;;;;;;;5037357;28;20048;-81
2022/08/17 13:08:23;;;;;;;0.00;0.00;;;;;;;;;;5037841;28;20045;-81
2022/08/17 13:10:54;;;;;;;2.45;0.05;;;;;;;;;;5037261;28;20049;-81
2022/08/17 13:13:25;;;;;;;0.00;0.00;;;;;;;;;;5037454;28;20607;-81
2022/08/17 13:15:56;;;;;;;0.00;0.00;;;;;;;;;;5021019;28;20123;-82
2022/08/17 13:18:31;;;;;;;0.00;0.00;;;;;;;;;;5037405;28;20072;-81
2022/08/17 13:20:58;;;;;;;0.17;0.03;;;;;;;;;;5055230;28;20048;-82
2022/08/17 13:23:27;;;;;;;0.00;0.00;;;;;;;;;;5055421;28;20120;-81
2022/08/17 13:25:59;;;;;;;0.10;0.00;;;;;;;;;;5055191;28;20094;-81
2022/08/17 13:28:26;;;;;;;0.00;0.00;;;;;;;;;;5055156;28;20476;-81
2022/08/17 13:30:53;;;;;;;0.00;0.00;;;;;;;;;;5055133;28;20116;-81
2022/08/17 13:33:30;;;;;;;0.00;0.00;;;;;;;;;;5037052;28;20044;-81
2022/08/17 13:36:06;;;;;;;0.00;0.00;;;;;;;;;;5036955;28;20083;-81
2022/08/17 13:38:48;;;;;;;0.00;0.00;;;;;;;;;;5055175;28;20056;-81
2022/08/17 13:41:34;;;;;;;0.00;0.00;;;;;;;;;;5038823;28;20045;-80
2022/08/17 13:44:00;;;;;;;0.30;0.03;;;;;;;;;;5039042;28;20045;-80
2022/08/17 13:46:31;;;;;;;0.43;0.03;;;;;;;;;;5022880;28;20397;-81
2022/08/17 13:49:02;;;;;;;0.45;0.03;;;;;;;;;;5037046;28;20080;-80
2022/08/17 13:51:30;;;;;;;0.00;0.00;;;;;;;;;;5054559;28;20044;-81
2022/08/17 13:53:58;;;;;;;0.00;0.00;;;;;;;;;;5054760;28;20033;-81
2022/08/17 13:56:24;;;;;;;0.00;0.00;;;;;;;;;;5055042;28;20037;-81
2022/08/17 13:58:55;;;;;;;0.00;0.00;;;;;;;;;;5054731;28;20488;-82
2022/08/17 14:01:35;;;;;;;0.00;0.00;;;;;;;;;;5054269;28;20477;-81
2022/08/17 14:04:02;;;;;;;0.00;0.00;;;;;;;;;;5054327;28;20506;-81
2022/08/17 14:06:31;;;;;;;0.00;0.00;;;;;;;;;;5054422;28;20048;-81
2022/08/17 14:08:57;;;;;;;0.00;0.00;;;;;;;;;;5054492;28;20045;-81
2022/08/17 14:11:23;;;;;;;0.00;0.00;;;;;;;;;;5036441;28;20048;-80
2022/08/17 14:13:49;;;;;;;0.05;0.00;;;;;;;;;;5036639;28;20106;-81
2022/08/17 14:16:15;;;;;;;0.00;0.00;;;;;;;;;;5036265;28;20037;-81
2022/08/17 14:18:42;;;;;;;0.00;0.00;;;;;;;;;;5036458;28;20071;-83
2022/08/17 14:21:08;;;;;;;0.00;0.00;;;;;;;;;;5036269;28;20051;-81
2022/08/17 14:23:35;;;;;;;0.00;0.00;;;;;;;;;;5035937;28;20045;-81
2022/08/17 14:26:01;;;;;;;0.00;0.00;;;;;;;;;;5036386;28;20424;-81
2022/08/17 14:28:27;;;;;;;0.00;0.00;;;;;;;;;;5036197;28;20190;-81
2022/08/17 14:30:54;;;;;;;0.00;0.00;;;;;;;;;;5036202;28;20093;-81
2022/08/17 14:33:21;;;;;;;0.00;0.00;;;;;;;;;;5053915;28;20048;-81
2022/08/17 14:35:52;;;;;;;0.00;0.00;;;;;;;;;;5019315;28;20056;-81
2022/08/17 14:38:18;;;;;;;0.00;0.00;;;;;;;;;;5053952;28;20037;-81
2022/08/17 14:40:44;;;;;;;0.00;0.00;;;;;;;;;;5035638;28;20541;-80
2022/08/17 14:43:10;;;;;;;0.00;0.00;;;;;;;;;;5035958;28;20471;-81
2022/08/17 14:45:36;;;;;;;0.00;0.00;;;;;;;;;;5035741;28;20064;-80
2022/08/17 14:48:06;;;;;;;0.00;0.00;;;;;;;;;;5053826;28;20057;-80
2022/08/17 14:50:33;;;;;;;0.00;0.00;;;;;;;;;;5053174;28;20480;-80
2022/08/17 14:52:59;;;;;;;0.00;0.00;;;;;;;;;;5035861;28;20040;-82
2022/08/17 14:55:25;;;;;;;0.00;0.00;;;;;;;;;;5035694;28;20048;-81
2022/08/17 14:57:52;;;;;;;0.05;0.00;;;;;;;;;;5035559;28;20064;-82
2022/08/17 15:00:18;;;;;;;0.00;0.00;;;;;;;;;;5053013;28;20480;-81
2022/08/17 15:02:49;;;;;;;0.00;0.00;;;;;;;;;;5035848;28;20052;-81
2022/08/17 15:05:16;;;;;;;0.00;0.00;;;;;;;;;;5053165;28;20094;-85
2022/08/17 15:07:43;;;;;;;0.10;0.00;;;;;;;;;;5034187;28;20045;-82
2022/08/17 15:10:09;;;;;;;0.00;0.00;;;;;;;;;;5035037;28;20049;-82
2022/08/17 15:12:35;;;;;;;0.00;0.00;;;;;;;;;;5053175;28;20452;-82
2022/08/17 15:15:02;;;;;;;0.00;0.00;;;;;;;;;;5053041;28;20178;-83
2022/08/17 15:17:28;;;;;;;0.00;0.00;;;;;;;;;;5052907;28;20037;-82
2022/08/17 15:19:54;;;;;;;0.00;0.00;;;;;;;;;;5053004;28;20052;-83
2022/08/17 15:22:28;;;;;;;0.00;0.00;;;;;;;;;;5053197;28;20492;-82
2022/08/17 15:24:55;;;;;;;0.00;0.00;;;;;;;;;;5052672;28;20518;-88
2022/08/17 15:27:22;;;;;;;0.00;0.00;;;;;;;;;;5053260;28;20045;-85
2022/08/17 15:29:48;;;;;;;0.00;0.00;;;;;;;;;;5051887;28;20049;-84
2022/08/17 15:32:26;;;;;;;0.00;0.00;;;;;;;;;;5052638;28;20120;-83